Time;durP1;ratioP1;P1;durP2;ratioP2;P2;SDS_P1;SDS_P2;PMS_P1;PMS_P2;Temp;Humidity;BMP_temperature;BMP_pressure;BME280_temperature;BME280_humidity;BME280_pressure;Samples;Min_cycle;Max_cycle;Signal;HPM_P1;HPM_P2
2022/06/10 00:00:40;;;;;;;3.15;2.10;;;;;;;13.43;62.31;101236.22;5038222;28;20453;-69
2022/06/10 00:03:08;;;;;;;6.10;2.33;;;;;;;13.44;62.75;101232.50;5037465;28;20489;-69
2022/06/10 00:05:36;;;;;;;6.55;2.10;;;;;;;13.40;62.37;101236.53;5037022;28;20140;-68
2022/06/10 00:08:08;;;;;;;6.85;2.15;;;;;;;13.36;62.39;101244.13;5036963;28;20140;-69
2022/06/10 00:10:36;;;;;;;4.65;2.45;;;;;;;13.33;62.96;101239.91;5037243;28;20528;-69
2022/06/10 00:13:03;;;;;;;4.60;2.30;;;;;;;13.26;62.61;101249.66;5037155;28;20095;-69
2022/06/10 00:15:30;;;;;;;4.00;2.00;;;;;;;13.30;62.11;101251.00;5037451;28;20399;-69
2022/06/10 00:17:57;;;;;;;5.60;2.10;;;;;;;13.24;62.34;101248.13;5019901;28;20141;-69
2022/06/10 00:20:26;;;;;;;5.45;2.38;;;;;;;13.20;62.19;101247.59;5036640;28;20125;-69
2022/06/10 00:22:53;;;;;;;4.80;3.00;;;;;;;13.19;62.37;101247.78;5037144;28;20494;-68
2022/06/10 00:25:21;;;;;;;6.05;2.10;;;;;;;13.15;62.43;101251.81;5036914;28;20073;-69
2022/06/10 00:27:49;;;;;;;3.00;1.70;;;;;;;13.14;62.85;101250.13;5036937;28;20485;-69
2022/06/10 00:30:17;;;;;;;2.22;1.50;;;;;;;13.09;62.67;101253.31;5036847;28;20049;-69
2022/06/10 00:32:44;;;;;;;5.63;2.05;;;;;;;13.07;62.07;101256.16;5035906;28;20081;-69
2022/06/10 00:35:11;;;;;;;4.25;1.60;;;;;;;13.11;61.75;101256.66;5036352;28;20049;-69
2022/06/10 00:37:38;;;;;;;6.18;2.00;;;;;;;13.09;62.03;101272.16;5036749;28;20442;-68
2022/06/10 00:40:07;;;;;;;2.75;1.60;;;;;;;13.06;61.97;101267.94;5036557;28;20537;-69
2022/06/10 00:42:35;;;;;;;2.08;1.40;;;;;;;13.07;62.35;101266.09;5036710;28;20497;-69
2022/06/10 00:45:04;;;;;;;4.72;1.70;;;;;;;13.02;62.39;101274.66;5036719;28;20466;-69
2022/06/10 00:47:42;;;;;;;5.35;1.77;;;;;;;13.01;62.29;101280.22;5036460;28;20089;-69
2022/06/10 00:50:24;;;;;;;2.80;1.52;;;;;;;12.97;62.47;101278.84;5037045;28;20108;-69
2022/06/10 00:52:56;;;;;;;2.95;1.55;;;;;;;13.00;62.76;101286.59;5037308;28;20136;-68
2022/06/10 00:55:28;;;;;;;2.55;1.77;;;;;;;12.96;62.77;101291.47;5029196;28;20132;-69
2022/06/10 00:58:07;;;;;;;6.72;2.40;;;;;;;12.94;62.77;101296.19;5036970;28;20112;-69
2022/06/10 01:00:37;;;;;;;11.63;2.42;;;;;;;12.87;63.15;101296.00;5037107;28;20088;-69
2022/06/10 01:03:04;;;;;;;4.45;2.28;;;;;;;12.85;63.24;101298.00;5036319;28;20092;-70
2022/06/10 01:09:19;;;;;;;5.28;2.20;;;;;;;12.84;63.34;101304.38;5036299;28;20045;-69
2022/06/10 01:12:06;;;;;;;5.15;2.78;;;;;;;12.81;63.62;101309.25;5036095;28;20132;-69
2022/06/10 01:14:45;;;;;;;5.25;2.17;;;;;;;12.75;63.66;101308.03;5036101;28;20524;-69
2022/06/10 01:17:20;;;;;;;5.35;2.13;;;;;;;12.72;63.50;101311.00;5036053;28;20069;-69
2022/06/10 01:20:11;;;;;;;4.30;2.55;;;;;;;12.64;64.18;101310.97;5035907;28;20068;-69
2022/06/10 01:22:44;;;;;;;6.00;3.25;;;;;;;12.71;63.87;101322.78;5035869;28;20433;-69
2022/06/10 01:25:42;;;;;;;6.07;3.30;;;;;;;12.62;64.37;101315.66;5035852;28;20076;-68
2022/06/10 01:28:47;;;;;;;5.20;3.10;;;;;;;12.54;64.63;101327.22;5035919;28;20401;-68
2022/06/10 01:31:25;;;;;;;8.68;3.08;;;;;;;12.52;64.70;101331.94;5035863;28;20068;-69
2022/06/10 01:34:20;;;;;;;5.90;2.47;;;;;;;12.48;64.78;101324.31;5035557;28;20049;-69
2022/06/10 01:37:10;;;;;;;5.15;2.60;;;;;;;12.48;64.86;101327.00;5036157;28;20084;-70
2022/06/10 01:40:15;;;;;;;5.65;2.50;;;;;;;12.46;65.32;101332.56;5035586;28;20089;-69
2022/06/10 01:43:01;;;;;;;6.25;2.00;;;;;;;12.40;65.19;101331.34;5035221;28;20156;-69
2022/06/10 01:45:37;;;;;;;7.47;2.33;;;;;;;12.37;65.31;101334.34;5036061;28;20060;-69
2022/06/10 01:48:23;;;;;;;8.00;2.63;;;;;;;12.36;65.47;101342.59;5035765;28;20049;-69
2022/06/10 01:51:00;;;;;;;4.45;2.20;;;;;;;12.31;65.76;101340.34;5035253;28;20045;-69
2022/06/10 01:53:39;;;;;;;6.32;2.15;;;;;;;12.21;66.07;101339.63;5036225;28;20367;-68
2022/06/10 01:56:15;;;;;;;4.60;2.15;;;;;;;12.24;65.87;101344.66;5035389;28;20060;-68
2022/06/10 01:58:47;;;;;;;3.60;2.35;;;;;;;12.19;66.29;101343.44;5035326;28;20053;-69
2022/06/10 02:01:19;;;;;;;5.93;2.40;;;;;;;12.13;66.53;101348.44;5035776;28;20137;-69
2022/06/10 02:03:59;;;;;;;4.97;2.30;;;;;;;12.11;66.91;101349.63;5034869;28;20049;-69
2022/06/10 02:06:34;;;;;;;6.22;2.42;;;;;;;12.11;66.43;101363.06;5034979;28;20125;-69
2022/06/10 02:09:13;;;;;;;2.95;2.38;;;;;;;12.12;66.35;101351.28;5035537;28;20081;-69
2022/06/10 02:11:45;;;;;;;3.90;2.60;;;;;;;12.03;66.61;101349.53;5035692;28;20061;-69
2022/06/10 02:14:38;;;;;;;7.07;2.40;;;;;;;12.00;66.82;101353.34;5035166;28;20053;-70
2022/06/10 02:17:09;;;;;;;5.15;2.17;;;;;;;11.97;67.17;101353.69;5035180;28;20053;-69
2022/06/10 02:19:41;;;;;;;5.93;2.38;;;;;;;11.99;66.99;101372.34;5036234;28;20058;-69
2022/06/10 02:22:16;;;;;;;5.22;2.38;;;;;;;11.94;66.95;101356.69;5035467;28;20049;-69
2022/06/10 02:25:24;;;;;;;3.88;2.15;;;;;;;11.92;67.07;101367.56;5035830;28;20140;-69
2022/06/10 02:27:55;;;;;;;8.13;2.72;;;;;;;11.87;66.96;101363.69;5034335;28;20136;-69
2022/06/10 02:30:43;;;;;;;4.07;2.28;;;;;;;11.83;67.29;101371.22;5035050;28;20405;-69
2022/06/10 02:33:11;;;;;;;9.43;2.70;;;;;;;11.85;67.31;101379.94;5034732;28;20124;-68
2022/06/10 02:36:04;;;;;;;5.03;2.20;;;;;;;11.76;67.67;101377.31;5034524;28;20052;-69
2022/06/10 02:38:36;;;;;;;7.00;2.50;;;;;;;11.77;67.47;101377.19;5004617;28;20061;-69
2022/06/10 02:41:21;;;;;;;8.85;2.30;;;;;;;11.77;67.65;101381.72;5034750;28;20045;-69
2022/06/10 02:44:19;;;;;;;7.38;2.72;;;;;;;11.74;67.69;101388.25;5034267;28;20155;-68
2022/06/10 02:47:00;;;;;;;7.60;2.30;;;;;;;11.71;67.71;101383.16;5034727;28;20124;-68
2022/06/10 02:49:28;;;;;;;7.33;2.03;;;;;;;11.70;67.93;101392.22;5035169;28;20045;-68
2022/06/10 02:51:55;;;;;;;5.78;2.10;;;;;;;11.67;67.84;101395.22;5034851;28;20704;-69
2022/06/10 02:54:30;;;;;;;6.45;2.28;;;;;;;11.63;67.87;101401.88;5034444;28;20085;-69
2022/06/10 02:56:57;;;;;;;6.25;2.08;;;;;;;11.58;68.28;101406.81;5035255;28;20049;-70
2022/06/10 03:02:21;;;;;;;4.18;2.38;;;;;;;11.58;68.38;101415.72;5034733;28;20405;-69
2022/06/10 03:05:20;;;;;;;7.78;2.38;;;;;;;11.55;68.62;101417.88;5017057;28;20088;-69
2022/06/10 03:08:10;;;;;;;6.80;2.65;;;;;;;11.52;68.88;101419.03;5034962;28;20544;-68
2022/06/10 03:10:46;;;;;;;5.83;2.73;;;;;;;11.52;68.82;101415.47;5035443;28;20073;-68
2022/06/10 03:13:33;;;;;;;7.50;2.35;;;;;;;11.53;68.68;101427.94;5035379;28;20092;-69
2022/06/10 03:16:00;;;;;;;4.22;2.60;;;;;;;11.56;68.66;101427.66;5034241;28;20136;-69
2022/06/10 03:18:49;;;;;;;7.07;2.63;;;;;;;11.63;68.53;101428.75;5034385;28;20075;-69
2022/06/10 03:21:34;;;;;;;10.75;2.20;;;;;;;11.69;67.97;101437.09;5034619;28;20137;-69
2022/06/10 03:24:18;;;;;;;5.43;2.35;;;;;;;11.70;68.02;101437.94;5034599;28;20081;-70
2022/06/10 03:27:19;;;;;;;7.72;2.35;;;;;;;11.69;67.95;101444.31;5034242;28;20524;-68
2022/06/10 03:29:50;;;;;;;6.50;2.38;;;;;;;11.75;67.81;101449.06;5034652;28;20104;-69
2022/06/10 03:32:29;;;;;;;6.87;2.67;;;;;;;11.76;67.86;101453.47;5033967;28;20041;-68
2022/06/10 03:35:09;;;;;;;6.38;2.20;;;;;;;11.82;67.51;101455.53;5033866;28;20330;-69
2022/06/10 03:37:38;;;;;;;5.43;2.55;;;;;;;11.81;67.69;101453.00;5034013;28;20088;-69
2022/06/10 03:40:05;;;;;;;7.15;2.90;;;;;;;11.79;67.77;101454.97;5033713;28;20053;-69
2022/06/10 03:42:33;;;;;;;5.57;2.30;;;;;;;11.84;67.29;101458.06;5034218;28;20049;-69
2022/06/10 03:44:59;;;;;;;2.75;1.88;;;;;;;11.86;67.41;101464.13;5034370;28;20168;-69
2022/06/10 03:47:37;;;;;;;5.57;2.20;;;;;;;11.90;67.37;101470.94;5034828;28;20073;-69
2022/06/10 03:50:12;;;;;;;10.52;2.30;;;;;;;11.87;67.39;101469.38;5033848;28;20049;-69
2022/06/10 03:52:41;;;;;;;4.43;2.20;;;;;;;11.92;67.21;101472.44;5033577;28;20085;-69
2022/06/10 03:55:09;;;;;;;5.82;2.50;;;;;;;11.90;67.40;101482.53;5034175;28;20108;-69
2022/06/10 03:57:36;;;;;;;3.72;2.38;;;;;;;11.88;67.28;101479.13;5033955;28;20141;-68
2022/06/10 04:00:05;;;;;;;7.22;2.47;;;;;;;11.99;67.18;101486.13;5033655;28;20497;-68
2022/06/10 04:02:31;;;;;;;5.68;2.70;;;;;;;12.03;66.93;101481.31;5033462;28;20144;-69
2022/06/10 04:04:58;;;;;;;14.93;2.92;;;;;;;12.07;66.88;101486.25;5033993;28;20108;-68
2022/06/10 04:07:25;;;;;;;5.30;2.30;;;;;;;12.12;66.94;101486.63;5035440;28;20140;-67
2022/06/10 04:09:51;;;;;;;5.40;2.20;;;;;;;12.13;66.78;101485.63;5036548;28;20084;-68
2022/06/10 04:12:19;;;;;;;5.10;2.45;;;;;;;12.16;66.58;101492.53;5036777;28;20408;-69
2022/06/10 04:14:46;;;;;;;7.28;3.00;;;;;;;12.26;66.30;101493.31;5036857;28;20089;-69
2022/06/10 04:17:12;;;;;;;8.13;2.92;;;;;;;12.06;66.84;101500.66;5037190;28;20473;-69
2022/06/10 04:19:39;;;;;;;5.78;2.53;;;;;;;12.00;67.56;101501.25;5037855;28;20122;-68
2022/06/10 04:22:06;;;;;;;11.88;3.00;;;;;;;12.01;67.30;101502.13;5036515;28;20085;-68
2022/06/10 04:24:32;;;;;;;11.10;3.05;;;;;;;12.05;67.05;101499.00;5037096;28;20053;-69
2022/06/10 04:26:59;;;;;;;7.03;2.72;;;;;;;12.02;67.31;101506.50;5035460;28;20077;-68
2022/06/10 04:29:25;;;;;;;10.48;4.18;;;;;;;12.07;67.32;101504.19;5036491;28;20049;-68
2022/06/10 04:31:52;;;;;;;9.98;2.97;;;;;;;12.02;67.25;101506.50;5035970;28;20095;-68
2022/06/10 04:34:19;;;;;;;7.25;3.10;;;;;;;11.86;67.86;101507.16;5036507;28;20057;-69
2022/06/10 04:36:45;;;;;;;7.13;3.35;;;;;;;12.01;67.55;101502.97;5036304;28;20136;-69
2022/06/10 04:39:12;;;;;;;11.10;3.65;;;;;;;12.02;67.31;101506.50;5036618;28;20533;-69
2022/06/10 04:41:39;;;;;;;12.57;4.18;;;;;;;11.98;67.50;101508.66;5036761;28;20463;-69
2022/06/10 04:44:07;;;;;;;12.68;3.60;;;;;;;11.98;67.55;101511.34;5036160;28;20096;-69
2022/06/10 04:46:37;;;;;;;7.85;4.10;;;;;;;12.08;67.25;101519.38;5036693;28;20099;-68
2022/06/10 04:49:05;;;;;;;8.90;4.00;;;;;;;12.03;67.42;101517.09;5036738;28;20465;-69
2022/06/10 04:51:33;;;;;;;12.70;4.25;;;;;;;12.03;67.38;101516.25;5036078;28;20119;-69
2022/06/10 04:54:00;;;;;;;10.32;4.00;;;;;;;12.09;67.43;101523.72;5036593;28;20060;-69
2022/06/10 04:56:26;;;;;;;9.55;3.78;;;;;;;12.11;67.22;101524.44;5035984;28;20133;-69
2022/06/10 04:58:53;;;;;;;9.43;4.25;;;;;;;12.05;67.52;101525.03;5036283;28;20049;-68
2022/06/10 05:01:20;;;;;;;14.13;4.47;;;;;;;12.14;67.24;101530.38;5036258;28;20487;-69
2022/06/10 05:03:51;;;;;;;16.42;4.35;;;;;;;12.18;67.08;101536.28;5036770;28;20069;-68
2022/06/10 05:06:18;;;;;;;14.98;3.53;;;;;;;12.23;66.61;101531.28;5036497;28;20486;-68
2022/06/10 05:08:44;;;;;;;15.40;4.22;;;;;;;12.11;67.15;101538.72;5036573;28;20137;-69
2022/06/10 05:11:11;;;;;;;9.27;2.85;;;;;;;12.26;66.48;101538.22;5035979;28;20080;-69
2022/06/10 05:13:38;;;;;;;12.23;6.18;;;;;;;12.25;66.33;101540.06;5036587;28;20050;-68
2022/06/10 05:16:05;;;;;;;12.15;4.80;;;;;;;12.19;66.02;101546.03;5037146;28;20155;-68
2022/06/10 05:18:33;;;;;;;15.73;3.15;;;;;;;12.26;65.18;101546.28;5035569;28;20049;-69
2022/06/10 05:20:59;;;;;;;12.10;3.47;;;;;;;12.26;65.07;101547.13;5036408;28;20088;-69
2022/06/10 05:23:26;;;;;;;16.15;2.72;;;;;;;12.30;65.02;101547.69;5035920;28;20077;-68
2022/06/10 05:25:53;;;;;;;8.27;2.85;;;;;;;12.33;64.94;101547.38;5036549;28;20129;-69
2022/06/10 05:28:21;;;;;;;14.25;2.90;;;;;;;12.31;64.52;101550.19;5035695;28;20041;-68
2022/06/10 05:30:48;;;;;;;10.30;2.45;;;;;;;12.39;64.01;101546.78;5036622;28;20073;-69
2022/06/10 05:33:15;;;;;;;9.77;2.20;;;;;;;12.38;63.99;101553.13;5035378;28;20049;-69
2022/06/10 05:35:43;;;;;;;10.65;2.30;;;;;;;12.36;64.41;101550.59;5035778;28;20069;-69
2022/06/10 05:38:12;;;;;;;5.30;1.77;;;;;;;12.49;63.45;101552.09;5035332;28;20122;-69
2022/06/10 05:40:40;;;;;;;10.40;2.10;;;;;;;12.52;62.94;101557.16;5035594;28;20054;-68
2022/06/10 05:43:07;;;;;;;9.63;2.35;;;;;;;12.56;62.93;101562.09;5035316;28;20103;-69
2022/06/10 05:45:38;;;;;;;11.93;1.95;;;;;;;12.51;63.38;101568.91;5035237;28;20049;-68
2022/06/10 05:48:06;;;;;;;6.40;1.75;;;;;;;12.67;62.81;101565.56;5035598;28;20473;-68
2022/06/10 05:50:39;;;;;;;8.90;1.83;;;;;;;12.61;62.89;101572.38;5035395;28;20462;-68
2022/06/10 05:53:10;;;;;;;9.45;1.70;;;;;;;12.65;61.72;101574.63;5035818;28;20064;-68
2022/06/10 05:55:37;;;;;;;6.30;1.77;;;;;;;12.70;61.18;101565.25;5036614;28;20037;-71
2022/06/10 05:58:09;;;;;;;5.55;1.13;;;;;;;12.78;60.94;101573.44;5036262;28;20064;-71
2022/06/10 06:00:36;;;;;;;7.15;1.20;;;;;;;12.80;60.84;101566.91;5036186;28;20073;-71
2022/06/10 06:03:04;;;;;;;4.43;1.33;;;;;;;12.90;60.99;101569.50;5035484;28;20053;-71
2022/06/10 06:05:32;;;;;;;9.43;1.70;;;;;;;12.94;60.64;101567.34;5035724;28;20053;-71
2022/06/10 06:07:58;;;;;;;5.10;1.38;;;;;;;13.04;60.29;101568.97;5036362;28;20417;-70
2022/06/10 06:10:28;;;;;;;6.40;1.55;;;;;;;13.01;60.32;101571.13;5035852;28;20053;-70
2022/06/10 06:12:55;;;;;;;6.45;1.50;;;;;;;13.05;60.33;101575.19;5036412;28;20104;-71
2022/06/10 06:15:22;;;;;;;5.75;1.70;;;;;;;13.10;60.25;101568.31;5035905;28;20097;-70
2022/06/10 06:17:53;;;;;;;8.57;1.52;;;;;;;13.15;59.80;101570.56;5035022;28;20504;-71
2022/06/10 06:20:21;;;;;;;5.75;1.42;;;;;;;13.17;59.35;101573.94;5035353;28;20131;-70
2022/06/10 06:22:47;;;;;;;6.10;2.10;;;;;;;13.25;59.23;101576.72;5034806;28;20107;-70
2022/06/10 06:25:16;;;;;;;9.68;2.20;;;;;;;13.39;58.67;101575.28;5033021;28;20077;-70
2022/06/10 06:27:44;;;;;;;5.43;1.30;;;;;;;13.32;58.34;101575.06;5035620;28;20080;-70
2022/06/10 06:30:30;;;;;;;5.65;1.15;;;;;;;13.38;58.46;101580.81;5035697;28;20076;-70
2022/06/10 06:33:02;;;;;;;7.00;1.42;;;;;;;13.50;58.13;101587.66;5035783;28;20516;-70
2022/06/10 06:35:31;;;;;;;6.68;1.42;;;;;;;13.66;57.26;101581.50;5034807;28;20057;-71
2022/06/10 06:37:58;;;;;;;8.25;1.75;;;;;;;13.83;57.31;101581.47;5034392;28;20049;-70
2022/06/10 06:40:25;;;;;;;14.70;1.90;;;;;;;13.89;57.33;101579.97;5034698;28;20081;-71
2022/06/10 06:42:52;;;;;;;8.93;1.73;;;;;;;14.06;56.83;101586.31;5034569;28;20549;-71
2022/06/10 06:45:20;;;;;;;10.18;2.10;;;;;;;14.18;56.55;101578.75;5036010;28;20089;-71
2022/06/10 06:47:53;;;;;;;5.45;1.67;;;;;;;14.32;55.94;101583.53;5035012;28;20401;-71
2022/06/10 06:50:23;;;;;;;7.97;1.92;;;;;;;14.50;55.34;101586.13;5035249;28;20052;-71
2022/06/10 06:52:51;;;;;;;11.77;1.52;;;;;;;14.80;54.36;101591.94;5035116;28;20382;-71
2022/06/10 06:55:18;;;;;;;9.18;1.80;;;;;;;14.98;53.66;101590.78;5034673;28;20053;-71
2022/06/10 06:57:44;;;;;;;7.85;1.65;;;;;;;15.01;53.51;101587.72;5034663;28;20553;-72
2022/06/10 07:00:14;;;;;;;9.68;1.70;;;;;;;15.25;52.48;101594.97;5034852;28;20049;-71
2022/06/10 07:02:40;;;;;;;9.65;1.85;;;;;;;15.57;50.74;101585.16;5034872;28;20045;-71
2022/06/10 07:05:08;;;;;;;12.18;1.67;;;;;;;15.79;50.16;101589.03;5034563;28;20056;-71
2022/06/10 07:07:35;;;;;;;7.18;1.60;;;;;;;16.02;48.65;101599.09;5034433;28;20124;-71
2022/06/10 07:10:03;;;;;;;13.50;2.13;;;;;;;16.22;48.13;101585.97;5016986;28;20061;-71
2022/06/10 07:12:29;;;;;;;13.68;2.20;;;;;;;16.23;47.96;101593.06;5034390;28;20057;-70
2022/06/10 07:14:56;;;;;;;10.90;1.48;;;;;;;16.43;47.57;101599.75;5034104;28;20054;-71
2022/06/10 07:17:22;;;;;;;11.50;2.30;;;;;;;17.15;45.93;101596.75;5034133;28;20616;-71
2022/06/10 07:19:51;;;;;;;8.63;1.67;;;;;;;17.49;45.60;101596.28;5034573;28;20053;-71
2022/06/10 07:22:18;;;;;;;20.70;2.58;;;;;;;17.64;45.23;101598.19;5034055;28;20096;-71
2022/06/10 07:24:44;;;;;;;18.80;2.40;;;;;;;18.13;44.75;101590.31;5034660;28;20529;-68
2022/06/10 07:27:11;;;;;;;15.10;1.98;;;;;;;18.44;44.97;101594.69;5035128;28;20465;-67
2022/06/10 07:29:37;;;;;;;13.50;2.00;;;;;;;18.87;43.79;101587.44;5035623;28;20552;-67
2022/06/10 07:32:04;;;;;;;7.47;1.60;;;;;;;19.25;43.04;101588.00;5035087;28;20447;-67
2022/06/10 07:34:31;;;;;;;7.15;2.05;;;;;;;19.37;41.61;101595.63;5035487;28;20099;-68
2022/06/10 07:36:57;;;;;;;12.38;2.67;;;;;;;19.66;43.65;101590.00;5037048;28;20049;-69
2022/06/10 07:39:24;;;;;;;20.90;1.58;;;;;;;19.70;43.13;101593.19;5035913;28;20108;-68
2022/06/10 07:42:02;;;;;;;13.52;1.63;;;;;;;19.80;43.24;101607.28;5036283;28;20084;-68
2022/06/10 07:44:33;;;;;;;9.27;1.90;;;;;;;19.81;42.64;101600.78;5039617;28;20057;-69
2022/06/10 07:47:03;;;;;;;11.93;1.73;;;;;;;19.70;41.83;101596.75;5044955;28;20041;-69
2022/06/10 07:49:30;;;;;;;11.87;2.03;;;;;;;19.84;41.05;101605.00;5041965;28;20049;-68
2022/06/10 07:51:57;;;;;;;4.75;1.35;;;;;;;20.24;37.70;101611.47;5043540;28;20295;-69
2022/06/10 07:54:23;;;;;;;12.15;1.77;;;;;;;19.71;39.63;101600.31;5043366;28;20064;-69
2022/06/10 07:56:50;;;;;;;5.75;1.75;;;;;;;19.81;38.76;101602.69;5043940;28;20140;-69
2022/06/10 07:59:17;;;;;;;6.00;1.60;;;;;;;20.20;38.15;101607.47;5043801;28;20135;-69
2022/06/10 08:01:44;;;;;;;10.75;1.73;;;;;;;20.29;39.46;101603.56;5044084;28;20113;-69
2022/06/10 08:04:10;;;;;;;9.68;1.20;;;;;;;20.30;39.26;101609.84;5043011;28;20120;-68
2022/06/10 08:06:40;;;;;;;13.30;1.83;;;;;;;19.87;40.16;101602.72;5042458;28;20448;-68
2022/06/10 08:09:08;;;;;;;13.15;2.15;;;;;;;19.93;39.73;101612.81;5041870;28;20089;-68
2022/06/10 08:11:36;;;;;;;12.85;2.13;;;;;;;20.26;39.05;101611.28;5025486;28;20065;-69
2022/06/10 08:14:04;;;;;;;7.13;1.55;;;;;;;20.16;39.92;101609.78;5043915;28;20049;-69
2022/06/10 08:16:32;;;;;;;7.70;2.10;;;;;;;19.76;40.56;101600.53;5042820;28;20060;-69
2022/06/10 08:18:59;;;;;;;10.15;1.85;;;;;;;19.90;39.75;101599.59;5041583;28;20049;-68
2022/06/10 08:24:12;;;;;;;7.05;1.48;;;;;;;19.87;40.41;101601.88;5042398;28;20049;-69
2022/06/10 08:26:39;;;;;;;11.57;1.90;;;;;;;19.72;40.11;101602.81;5041110;28;20081;-68
2022/06/10 08:29:07;;;;;;;11.75;2.38;;;;;;;20.00;39.08;101598.38;5038208;28;20113;-68
2022/06/10 08:31:34;;;;;;;10.95;2.10;;;;;;;20.13;38.33;101604.72;5037776;28;20108;-68
2022/06/10 08:34:02;;;;;;;10.98;2.03;;;;;;;20.15;38.76;101605.38;5038727;28;20053;-69
2022/06/10 08:36:30;;;;;;;11.77;1.75;;;;;;;20.10;38.86;101605.13;5038376;28;20061;-69
2022/06/10 08:38:57;;;;;;;9.10;2.13;;;;;;;20.23;38.52;101608.97;5039198;28;20468;-69
2022/06/10 08:41:40;;;;;;;8.15;1.70;;;;;;;19.89;38.91;101610.69;5038385;28;20121;-69
2022/06/10 08:44:29;;;;;;;11.07;2.03;;;;;;;20.53;37.74;101609.53;5038037;28;20111;-69
2022/06/10 08:47:17;;;;;;;7.13;1.67;;;;;;;20.27;38.58;101610.25;5037847;28;20053;-69
2022/06/10 08:50:02;;;;;;;10.55;1.80;;;;;;;20.49;37.53;101614.56;5037944;28;20068;-69
2022/06/10 08:52:48;;;;;;;7.25;1.60;;;;;;;20.36;38.06;101606.31;5037375;28;20136;-69
2022/06/10 08:55:40;;;;;;;7.63;1.58;;;;;;;20.30;37.44;101613.41;5037671;28;20080;-69
2022/06/10 08:58:21;;;;;;;8.68;2.40;;;;;;;20.30;37.49;101612.56;5038248;28;20092;-69
2022/06/10 09:01:01;;;;;;;13.05;1.80;;;;;;;20.08;37.92;101620.00;5038014;28;20049;-68
2022/06/10 09:03:44;;;;;;;10.30;1.58;;;;;;;20.01;37.83;101614.53;5037328;28;20053;-70
2022/06/10 09:06:26;;;;;;;9.50;1.83;;;;;;;19.90;37.81;101615.94;5037706;28;20069;-69
2022/06/10 09:08:56;;;;;;;9.80;1.48;;;;;;;20.15;37.24;101612.72;5044754;28;20045;-67
2022/06/10 09:11:37;;;;;;;8.65;1.42;;;;;;;20.00;36.67;101625.59;5037028;28;20107;-68
2022/06/10 09:14:13;;;;;;;10.35;1.60;;;;;;;20.13;36.05;101617.50;5036037;28;20085;-65
2022/06/10 09:17:03;;;;;;;6.97;1.60;;;;;;;20.35;36.06;101610.06;5036402;28;20144;-65
2022/06/10 09:19:33;;;;;;;9.47;1.53;;;;;;;21.01;35.22;101602.09;5037112;28;20052;-66
2022/06/10 09:22:24;;;;;;;3.92;1.20;;;;;;;20.72;35.46;101606.00;5036233;28;20344;-66
2022/06/10 09:25:13;;;;;;;6.38;1.80;;;;;;;20.38;35.91;101607.75;5036906;28;20053;-66
2022/06/10 09:27:44;;;;;;;8.77;1.70;;;;;;;20.73;34.75;101617.75;5035926;28;20406;-64
2022/06/10 09:30:12;;;;;;;;;;;;;;;20.64;35.04;101604.31;5036218;28;20061;-66
2022/06/10 09:33:09;;;;;;;5.63;1.60;;;;;;;20.62;35.67;101611.84;5035497;28;19971;-65
2022/06/10 09:35:42;;;;;;;7.55;1.70;;;;;;;21.17;34.77;101614.50;5035418;28;20460;-65
2022/06/10 09:38:20;;;;;;;13.13;2.03;;;;;;;21.40;34.44;101618.72;5035225;28;20053;-65
2022/06/10 09:41:04;;;;;;;8.48;1.42;;;;;;;22.02;33.77;101610.03;5035868;28;20073;-66
2022/06/10 09:44:10;;;;;;;7.65;1.63;;;;;;;21.56;34.44;101607.34;5035731;28;20053;-65
2022/06/10 09:46:58;;;;;;;11.02;2.38;;;;;;;21.85;33.84;101611.53;5032168;28;20120;-66
2022/06/10 09:49:46;;;;;;;5.88;1.55;;;;;;;21.84;33.85;101609.88;5036268;28;20069;-66
2022/06/10 09:52:33;;;;;;;6.07;1.70;;;;;;;21.28;34.38;101616.59;5036041;28;20105;-65
2022/06/10 09:55:22;;;;;;;6.95;1.55;;;;;;;21.32;33.28;101611.56;5035340;28;20466;-67
2022/06/10 09:58:04;;;;;;;7.55;1.58;;;;;;;22.19;30.68;101624.06;5035738;28;20136;-66
2022/06/10 10:01:13;;;;;;;9.13;1.90;;;;;;;22.04;31.25;101610.63;5035586;28;20570;-67
2022/06/10 10:04:06;;;;;;;6.88;1.52;;;;;;;21.54;32.33;101614.94;5025208;28;20421;-66
2022/06/10 10:06:42;;;;;;;6.38;1.35;;;;;;;21.50;31.96;101613.69;5035186;28;20049;-67
2022/06/10 10:09:33;;;;;;;7.82;1.55;;;;;;;21.21;32.64;101614.94;5035314;28;20077;-66
2022/06/10 10:12:19;;;;;;;5.75;1.48;;;;;;;22.16;30.35;101605.34;5034837;28;20073;-66
2022/06/10 10:15:06;;;;;;;8.10;1.40;;;;;;;22.02;31.02;101604.56;5035004;28;20053;-66
2022/06/10 10:17:40;;;;;;;7.40;1.67;;;;;;;23.21;29.25;101610.47;5034317;28;20076;-68
2022/06/10 10:20:28;;;;;;;6.88;1.52;;;;;;;24.00;26.46;101616.28;5034318;28;20494;-67
2022/06/10 10:23:08;;;;;;;9.98;1.73;;;;;;;24.38;26.08;101610.53;5034750;28;20092;-67
2022/06/10 10:25:40;;;;;;;5.40;1.42;;;;;;;23.56;27.51;101609.94;5034830;28;20462;-66
2022/06/10 10:28:24;;;;;;;10.77;5.82;;;;;;;25.48;25.94;101601.91;5034574;28;20550;-66
2022/06/10 10:31:24;;;;;;;7.95;2.45;;;;;;;24.68;26.24;101597.69;5034651;28;20088;-67
2022/06/10 10:33:57;;;;;;;10.52;2.55;;;;;;;24.77;26.55;101592.69;5034892;28;20053;-67
2022/06/10 10:36:27;;;;;;;5.47;1.65;;;;;;;24.81;26.80;101599.38;5035247;28;20535;-67
2022/06/10 10:38:55;;;;;;;11.20;1.50;;;;;;;24.87;27.01;101597.63;5034289;28;20469;-66
2022/06/10 10:41:45;;;;;;;7.43;1.95;;;;;;;24.51;26.96;101593.06;5033759;28;20141;-66
2022/06/10 10:44:23;;;;;;;8.32;2.03;;;;;;;22.57;29.48;101606.88;5034179;28;20497;-66
2022/06/10 10:47:00;;;;;;;5.90;1.70;;;;;;;22.09;29.99;101599.06;5034072;28;20053;-65
2022/06/10 10:49:31;;;;;;;11.35;1.38;;;;;;;22.69;29.37;101590.59;5033924;28;20057;-66
2022/06/10 10:51:58;;;;;;;14.10;1.83;;;;;;;22.67;29.45;101593.56;5034807;28;20485;-66
2022/06/10 10:54:33;;;;;;;6.82;1.42;;;;;;;23.94;27.93;101587.88;5034312;28;20088;-66
2022/06/10 10:57:01;;;;;;;9.20;1.40;;;;;;;23.00;29.06;101595.22;5034586;28;20473;-66
2022/06/10 10:59:37;;;;;;;6.90;1.92;;;;;;;22.09;30.65;101590.88;5034134;28;20069;-66
2022/06/10 11:02:25;;;;;;;10.40;1.95;;;;;;;22.00;30.66;101592.16;5035259;28;20049;-66
2022/06/10 11:05:06;;;;;;;6.70;1.77;;;;;;;21.99;30.63;101598.69;5034477;28;20132;-67
2022/06/10 11:07:33;;;;;;;8.07;2.03;;;;;;;21.75;31.13;101602.91;5016481;28;20409;-65
2022/06/10 11:10:21;;;;;;;6.20;1.50;;;;;;;22.03;30.83;101591.72;5034136;28;20132;-67
2022/06/10 11:12:49;;;;;;;10.50;1.63;;;;;;;22.39;30.22;101590.31;5034053;28;20049;-68
2022/06/10 11:15:27;;;;;;;24.48;4.40;;;;;;;22.02;30.62;101585.44;5034401;28;20405;-66
2022/06/10 11:17:56;;;;;;;6.80;1.80;;;;;;;21.94;30.77;101584.81;5037254;28;20046;-66
2022/06/10 11:20:29;;;;;;;11.07;2.05;;;;;;;21.54;30.98;101587.63;5038325;28;20144;-65
2022/06/10 11:23:21;;;;;;;10.00;1.50;;;;;;;21.93;31.07;101589.44;5038211;28;20045;-67
2022/06/10 11:26:02;;;;;;;9.10;1.70;;;;;;;22.08;29.99;101589.19;5032323;28;20057;-67
2022/06/10 11:28:33;;;;;;;;;;;;;;;22.36;29.31;101580.69;5038445;28;20049;-67
2022/06/10 11:31:00;;;;;;;6.00;1.58;;;;;;;22.35;30.47;101578.97;5038542;28;19927;-65
2022/06/10 11:33:43;;;;;;;7.40;1.80;;;;;;;22.38;30.03;101577.72;5037637;28;20056;-65
2022/06/10 11:36:13;;;;;;;8.82;1.63;;;;;;;22.11;30.30;101577.81;5037410;28;20119;-66
2022/06/10 11:39:08;;;;;;;4.05;1.33;;;;;;;21.72;29.89;101574.13;5037546;28;20486;-66
2022/06/10 11:41:34;;;;;;;5.90;1.50;;;;;;;21.27;30.99;101576.72;5037482;28;20053;-66
2022/06/10 11:44:01;;;;;;;4.88;1.42;;;;;;;21.42;30.76;101578.38;5037445;28;20099;-67
2022/06/10 11:46:34;;;;;;;3.92;1.25;;;;;;;21.23;30.43;101566.44;5037660;28;20064;-67
2022/06/10 11:49:12;;;;;;;7.88;1.35;;;;;;;21.00;30.79;101577.72;5037990;28;20095;-66
2022/06/10 11:51:55;;;;;;;9.25;1.90;;;;;;;20.92;30.80;101565.97;5037570;28;20080;-66
2022/06/10 11:54:40;;;;;;;6.07;1.33;;;;;;;20.73;31.23;101560.50;5038284;28;20054;-66
2022/06/10 12:00:21;;;;;;;6.63;1.25;;;;;;;20.43;30.81;101547.25;5037772;28;20049;-67
2022/06/10 12:02:48;;;;;;;5.53;1.40;;;;;;;20.53;31.87;101544.13;5037520;28;20148;-66
2022/06/10 12:05:19;;;;;;;3.80;1.20;;;;;;;20.42;31.93;101540.94;5037581;28;20049;-67
2022/06/10 12:07:59;;;;;;;10.43;1.63;;;;;;;20.19;32.66;101541.25;5037612;28;20084;-68